createdAt,value
2023-05-07T00:01:08.014Z,11.09
2023-05-07T00:03:35.181Z,10.53
2023-05-07T00:06:04.647Z,10.98
2023-05-07T00:08:31.780Z,11.31
2023-05-07T00:10:58.936Z,11.00
2023-05-07T00:13:26.114Z,11.08
2023-05-07T00:15:53.207Z,11.04
2023-05-07T00:18:23.387Z,11.25
2023-05-07T00:20:50.595Z,11.03
2023-05-07T00:23:17.820Z,11.37
2023-05-07T00:25:44.875Z,11.25
2023-05-07T00:28:14.146Z,10.71
2023-05-07T00:30:41.195Z,10.80
2023-05-07T00:33:08.325Z,10.91
2023-05-07T00:35:35.499Z,10.82
2023-05-07T00:38:02.583Z,10.85
2023-05-07T00:40:29.656Z,11.10
2023-05-07T00:42:58.943Z,10.67
2023-05-07T00:45:29.523Z,10.85
2023-05-07T00:48:02.473Z,10.58
2023-05-07T00:50:30.754Z,10.36
2023-05-07T00:52:58.140Z,10.63
2023-05-07T00:55:25.644Z,10.71
2023-05-07T00:57:53.194Z,10.72
2023-05-07T01:00:20.921Z,10.90
2023-05-07T01:02:48.354Z,10.84
2023-05-07T01:05:19.752Z,10.92
2023-05-07T01:07:48.417Z,10.93
2023-05-07T01:10:15.918Z,10.87
2023-05-07T01:12:44.663Z,10.52
2023-05-07T01:15:12.531Z,11.12
2023-05-07T01:17:43.517Z,10.83
2023-05-07T01:20:12.065Z,10.94
2023-05-07T01:22:40.897Z,11.11
2023-05-07T01:25:09.369Z,10.38
2023-05-07T01:27:38.087Z,10.60
2023-05-07T01:30:06.773Z,11.13
2023-05-07T01:33:09.254Z,10.90
2023-05-07T01:35:46.378Z,10.97
2023-05-07T01:38:14.277Z,11.11
2023-05-07T01:40:41.822Z,11.48
2023-05-07T01:43:10.024Z,11.24
2023-05-07T01:45:38.229Z,11.29
2023-05-07T01:48:05.863Z,11.06
2023-05-07T01:50:33.571Z,10.83
2023-05-07T01:53:02.086Z,10.92
2023-05-07T01:55:29.235Z,11.06
2023-05-07T01:57:56.545Z,11.08
2023-05-07T02:00:24.155Z,11.25
2023-05-07T02:02:51.407Z,10.95
2023-05-07T02:05:18.604Z,11.09
2023-05-07T02:07:45.634Z,11.42
2023-05-07T02:10:12.764Z,11.00
2023-05-07T02:12:40.168Z,10.47
2023-05-07T02:15:08.194Z,10.67
2023-05-07T02:17:36.270Z,10.60
2023-05-07T02:20:04.745Z,10.47
2023-05-07T02:22:31.799Z,10.46
2023-05-07T02:24:58.893Z,10.78
2023-05-07T02:27:26.030Z,11.10
2023-05-07T02:29:53.068Z,10.85
2023-05-07T02:32:20.748Z,11.14
2023-05-07T02:34:47.863Z,11.26
2023-05-07T02:37:14.909Z,11.25
2023-05-07T02:39:42.015Z,10.80
2023-05-07T02:42:09.047Z,10.99
2023-05-07T02:44:36.592Z,10.99
2023-05-07T02:47:03.663Z,10.63
2023-05-07T02:49:30.806Z,10.48
2023-05-07T02:51:57.857Z,11.01
2023-05-07T02:54:24.968Z,11.23
2023-05-07T02:56:53.113Z,10.65
2023-05-07T02:59:20.179Z,10.78
2023-05-07T03:01:47.316Z,10.33
2023-05-07T03:04:14.456Z,10.55
2023-05-07T03:06:41.598Z,10.69
2023-05-07T03:09:11.965Z,10.77
2023-05-07T03:11:39.330Z,10.81
2023-05-07T03:14:06.424Z,10.27
2023-05-07T03:16:33.945Z,10.71
2023-05-07T03:19:03.480Z,10.61
2023-05-07T03:21:31.610Z,10.97
2023-05-07T03:23:58.695Z,10.64
2023-05-07T03:26:26.278Z,10.62
2023-05-07T03:28:53.560Z,10.51
2023-05-07T03:31:20.887Z,10.33
2023-05-07T03:33:58.818Z,10.43
2023-05-07T03:36:27.832Z,10.49
2023-05-07T03:38:55.089Z,10.81
2023-05-07T03:41:22.429Z,10.94
2023-05-07T03:43:49.769Z,10.47
2023-05-07T03:46:16.871Z,10.61
2023-05-07T03:48:43.995Z,10.43
2023-05-07T03:51:11.113Z,10.66
2023-05-07T03:53:38.198Z,10.49
2023-05-07T03:56:06.139Z,10.06
2023-05-07T03:58:33.249Z,10.41
2023-05-07T04:01:00.347Z,10.64
2023-05-07T04:03:28.731Z,11.00
2023-05-07T04:05:56.040Z,11.07
2023-05-07T04:08:23.132Z,10.80
2023-05-07T04:10:59.122Z,10.59
2023-05-07T04:13:28.236Z,10.17
2023-05-07T04:15:57.210Z,10.64
2023-05-07T04:18:24.309Z,10.56
2023-05-07T04:20:51.459Z,10.41
2023-05-07T04:23:18.618Z,10.83
2023-05-07T04:25:46.255Z,10.64
2023-05-07T04:28:13.829Z,11.09
2023-05-07T04:30:42.223Z,11.42
2023-05-07T04:33:09.574Z,10.66
2023-05-07T04:35:37.339Z,10.66
2023-05-07T04:38:04.635Z,10.92
2023-05-07T04:40:31.657Z,10.85
2023-05-07T04:42:58.709Z,11.07
2023-05-07T04:45:25.832Z,10.67
2023-05-07T04:47:52.914Z,11.23
2023-05-07T04:50:20.835Z,11.27
2023-05-07T04:52:47.921Z,10.68
2023-05-07T04:55:15.003Z,11.07
2023-05-07T04:57:42.371Z,11.07
2023-05-07T05:00:10.424Z,12.06
2023-05-07T05:02:37.866Z,11.62
2023-05-07T05:05:05.749Z,11.17
2023-05-07T05:07:32.940Z,11.94
2023-05-07T05:10:00.456Z,12.08
2023-05-07T05:12:27.578Z,11.27
2023-05-07T05:14:55.194Z,11.07
2023-05-07T05:17:22.278Z,12.44
2023-05-07T05:19:49.380Z,11.76
2023-05-07T05:22:17.472Z,11.94
2023-05-07T05:24:44.544Z,12.88
2023-05-07T05:27:11.779Z,12.07
2023-05-07T05:29:38.936Z,12.70
2023-05-07T05:32:06.199Z,11.86
2023-05-07T05:34:34.318Z,11.18
2023-05-07T05:37:01.496Z,11.25
2023-05-07T05:39:28.613Z,12.68
2023-05-07T05:41:55.776Z,12.28
2023-05-07T05:44:22.917Z,12.98
2023-05-07T05:46:50.811Z,13.21
2023-05-07T05:49:18.067Z,12.90
2023-05-07T05:51:45.356Z,12.79
2023-05-07T05:54:12.412Z,11.19
2023-05-07T05:56:39.625Z,11.93
2023-05-07T05:59:06.990Z,11.75
2023-05-07T06:01:34.221Z,12.68
2023-05-07T06:04:01.316Z,13.69
2023-05-07T06:06:29.083Z,13.41
2023-05-07T06:08:56.140Z,12.22
2023-05-07T06:11:23.282Z,11.64
2023-05-07T06:13:50.379Z,12.99
2023-05-07T06:16:17.504Z,13.27
2023-05-07T06:18:46.300Z,12.02
2023-05-07T06:21:15.856Z,13.62
2023-05-07T06:23:42.958Z,13.72
2023-05-07T06:26:10.020Z,12.63
2023-05-07T06:28:37.161Z,12.53
2023-05-07T06:31:16.903Z,12.47
2023-05-07T06:33:46.104Z,12.49
2023-05-07T06:36:13.911Z,12.18
2023-05-07T06:38:40.995Z,12.98
2023-05-07T06:41:08.551Z,12.80
2023-05-07T06:43:36.386Z,12.63
2023-05-07T06:46:03.463Z,13.62
2023-05-07T06:48:30.498Z,13.57
2023-05-07T06:50:58.575Z,13.59
2023-05-07T06:53:26.843Z,14.04
2023-05-07T06:55:53.980Z,14.11
2023-05-07T07:00:48.198Z,14.30
2023-05-07T07:03:15.454Z,13.46
2023-05-07T07:05:43.149Z,13.43
2023-05-07T07:08:11.374Z,14.37
2023-05-07T07:10:38.504Z,13.38
2023-05-07T07:13:05.639Z,14.42
2023-05-07T07:15:32.731Z,14.90
2023-05-07T07:17:59.896Z,14.91
2023-05-07T07:20:27.058Z,15.26
2023-05-07T07:22:54.148Z,13.52
2023-05-07T07:25:21.228Z,14.99
2023-05-07T07:27:48.661Z,14.08
2023-05-07T07:30:16.027Z,13.23
2023-05-07T07:32:43.680Z,14.84
2023-05-07T07:35:11.208Z,14.88
2023-05-07T07:37:38.390Z,14.37
2023-05-07T07:40:06.742Z,14.94
2023-05-07T07:42:33.846Z,14.45
2023-05-07T07:45:02.916Z,14.53
2023-05-07T07:47:30.238Z,13.37
2023-05-07T07:49:57.863Z,14.83
2023-05-07T07:52:24.910Z,14.82
2023-05-07T07:54:51.982Z,13.46
2023-05-07T07:57:19.165Z,14.11
2023-05-07T07:59:46.418Z,14.73
2023-05-07T08:02:16.078Z,15.19
2023-05-07T08:04:44.293Z,15.02
2023-05-07T08:07:12.027Z,15.29
2023-05-07T08:09:43.153Z,15.69
2023-05-07T08:12:10.374Z,15.68
2023-05-07T08:14:38.020Z,15.91
2023-05-07T08:17:05.367Z,16.37
2023-05-07T08:19:32.512Z,15.67
2023-05-07T08:21:59.728Z,15.35
2023-05-07T08:24:26.940Z,14.85
2023-05-07T08:26:54.161Z,14.77
2023-05-07T08:29:21.230Z,14.84
2023-05-07T08:31:48.318Z,15.16
2023-05-07T08:34:15.708Z,15.40
2023-05-07T08:36:43.056Z,15.01
2023-05-07T08:39:10.170Z,15.40
2023-05-07T08:41:38.484Z,15.09
2023-05-07T08:44:12.946Z,15.48
2023-05-07T08:46:42.694Z,16.23
2023-05-07T08:49:10.527Z,15.84
2023-05-07T08:51:37.872Z,15.54
2023-05-07T08:54:06.249Z,15.54
2023-05-07T08:56:33.656Z,15.59
2023-05-07T08:59:00.962Z,17.21
2023-05-07T09:01:28.746Z,16.23
2023-05-07T09:03:55.960Z,16.46
2023-05-07T09:06:23.690Z,16.47
2023-05-07T09:08:54.612Z,16.44
2023-05-07T09:11:23.909Z,18.27
2023-05-07T09:13:57.043Z,17.90
2023-05-07T09:16:28.151Z,16.64
2023-05-07T09:18:59.421Z,17.92
2023-05-07T09:21:26.971Z,17.74
2023-05-07T09:23:56.927Z,17.76
2023-05-07T09:26:29.246Z,18.17
2023-05-07T09:28:56.507Z,17.52
2023-05-07T09:31:24.688Z,16.17
2023-05-07T09:33:53.399Z,15.62
2023-05-07T09:36:20.546Z,15.48
2023-05-07T09:38:52.337Z,17.21
2023-05-07T09:41:21.958Z,16.90
2023-05-07T09:43:56.302Z,16.28
2023-05-07T09:46:32.407Z,16.73
2023-05-07T09:49:00.661Z,18.20
2023-05-07T09:51:53.076Z,18.17
2023-05-07T09:54:20.633Z,17.79
2023-05-07T09:56:54.010Z,17.28
2023-05-07T09:59:25.404Z,17.57
2023-05-07T10:01:57.851Z,19.46
2023-05-07T10:04:27.244Z,19.71
2023-05-07T10:06:56.263Z,19.29
2023-05-07T10:09:23.879Z,19.60
2023-05-07T10:11:51.391Z,19.21
2023-05-07T10:14:20.507Z,18.39
2023-05-07T10:16:48.717Z,18.50
2023-05-07T10:19:17.403Z,17.65
2023-05-07T10:22:00.646Z,18.34
2023-05-07T10:24:38.476Z,18.30
2023-05-07T10:27:15.639Z,19.13
2023-05-07T10:30:16.962Z,18.11
2023-05-07T10:32:52.462Z,17.92
2023-05-07T10:35:30.460Z,18.02
2023-05-07T10:37:57.820Z,18.15
2023-05-07T10:40:25.398Z,18.35
2023-05-07T10:43:03.385Z,18.67
2023-05-07T10:45:30.777Z,18.05
2023-05-07T10:50:48.136Z,18.48
2023-05-07T10:53:18.200Z,19.71
2023-05-07T10:56:12.487Z,19.44
2023-05-07T10:58:39.537Z,21.54
2023-05-07T11:01:09.594Z,19.82
2023-05-07T11:03:36.838Z,20.23
2023-05-07T11:06:21.979Z,19.58
2023-05-07T11:08:59.343Z,17.89
2023-05-07T11:11:56.701Z,18.12
2023-05-07T11:14:42.454Z,20.06
2023-05-07T11:17:11.109Z,18.56
2023-05-07T11:19:53.987Z,18.33
2023-05-07T11:22:40.885Z,17.91
2023-05-07T11:25:08.806Z,18.11
2023-05-07T11:27:36.631Z,18.40
2023-05-07T11:30:04.339Z,18.33
2023-05-07T11:32:33.520Z,18.26
2023-05-07T11:35:02.073Z,18.85
2023-05-07T11:37:31.311Z,18.25
2023-05-07T11:40:11.642Z,18.05
2023-05-07T11:42:43.433Z,18.63
2023-05-07T11:45:11.668Z,20.08
2023-05-07T11:47:39.063Z,20.47
2023-05-07T11:50:09.227Z,20.22
2023-05-07T11:52:36.958Z,18.62
2023-05-07T11:55:05.706Z,20.34
2023-05-07T11:57:35.605Z,20.90
2023-05-07T12:00:05.647Z,21.37
2023-05-07T12:02:33.061Z,20.19
2023-05-07T12:05:03.502Z,19.60
2023-05-07T12:07:30.739Z,20.68
2023-05-07T12:09:57.838Z,21.28
2023-05-07T12:12:25.029Z,20.90
2023-05-07T12:14:53.142Z,22.94
2023-05-07T12:17:20.656Z,21.47
2023-05-07T12:20:00.036Z,20.92
2023-05-07T12:22:27.514Z,22.72
2023-05-07T12:25:04.093Z,21.77
2023-05-07T12:27:31.572Z,21.59
2023-05-07T12:30:00.299Z,21.61
2023-05-07T12:32:27.492Z,20.33
2023-05-07T12:34:54.661Z,20.57
2023-05-07T12:37:31.159Z,19.55
2023-05-07T12:40:21.547Z,21.06
2023-05-07T12:42:53.608Z,20.09
2023-05-07T12:45:21.384Z,20.21
2023-05-07T12:47:49.542Z,19.31
2023-05-07T12:50:17.937Z,20.59
2023-05-07T12:52:48.474Z,21.70
2023-05-07T12:55:17.836Z,21.31
2023-05-07T12:57:51.529Z,21.69
2023-05-07T13:00:38.007Z,21.88
2023-05-07T13:03:05.897Z,23.05
2023-05-07T13:05:36.307Z,21.85
2023-05-07T13:08:03.466Z,23.80
2023-05-07T13:10:30.805Z,23.96
2023-05-07T13:12:58.212Z,21.81
2023-05-07T13:15:26.841Z,20.55
2023-05-07T13:17:56.955Z,19.99
2023-05-07T13:20:24.309Z,20.34
2023-05-07T13:22:51.584Z,19.96
2023-05-07T13:25:18.907Z,20.55
2023-05-07T13:28:06.557Z,20.66
2023-05-07T13:30:37.838Z,21.82
2023-05-07T13:33:09.603Z,24.27
2023-05-07T13:35:36.975Z,22.03
2023-05-07T13:38:04.262Z,21.30
2023-05-07T13:40:31.721Z,22.04
2023-05-07T13:43:01.708Z,22.89
2023-05-07T13:45:30.784Z,21.22
2023-05-07T13:47:58.372Z,22.37
2023-05-07T13:50:27.796Z,22.49
2023-05-07T13:52:54.949Z,22.52
2023-05-07T13:55:25.104Z,21.66
2023-05-07T13:58:07.682Z,23.99
2023-05-07T14:00:35.395Z,22.81
2023-05-07T14:03:02.937Z,22.90
2023-05-07T14:05:30.126Z,22.22
2023-05-07T14:08:02.974Z,21.62
2023-05-07T14:10:30.501Z,20.98
2023-05-07T14:12:57.986Z,21.90
2023-05-07T14:15:25.810Z,21.79
2023-05-07T14:17:53.011Z,20.74
2023-05-07T14:20:20.359Z,20.80
2023-05-07T14:22:47.443Z,21.66
2023-05-07T14:25:17.573Z,21.44
2023-05-07T14:27:44.884Z,21.84
2023-05-07T14:30:12.898Z,21.41
2023-05-07T14:32:40.067Z,20.86
2023-05-07T14:35:07.736Z,20.39
2023-05-07T14:37:35.033Z,20.35
2023-05-07T14:40:05.748Z,20.85
2023-05-07T14:42:33.141Z,20.87
2023-05-07T14:45:00.323Z,20.60
2023-05-07T14:47:30.253Z,20.66
2023-05-07T14:49:58.329Z,21.65
2023-05-07T14:52:25.680Z,23.91
2023-05-07T14:54:52.763Z,22.62
2023-05-07T14:57:20.352Z,21.16
2023-05-07T14:59:48.088Z,20.71
2023-05-07T15:02:16.146Z,20.63
2023-05-07T15:04:46.728Z,21.40
2023-05-07T15:07:17.453Z,21.87
2023-05-07T15:09:45.699Z,22.02
2023-05-07T15:12:14.471Z,23.65
2023-05-07T15:14:42.108Z,21.97
2023-05-07T15:17:09.302Z,20.53
2023-05-07T15:19:36.465Z,20.68
2023-05-07T15:22:03.756Z,20.33
2023-05-07T15:24:31.710Z,21.28
2023-05-07T15:27:03.662Z,22.20
2023-05-07T15:29:31.269Z,21.72
2023-05-07T15:32:01.494Z,23.00
2023-05-07T15:34:30.353Z,22.33
2023-05-07T15:36:58.260Z,23.36
2023-05-07T15:39:25.699Z,22.32
2023-05-07T15:41:52.795Z,22.36
2023-05-07T15:44:20.074Z,20.55
2023-05-07T15:46:47.137Z,20.31
2023-05-07T15:49:14.225Z,20.69
2023-05-07T15:51:45.002Z,20.46
2023-05-07T15:54:12.527Z,20.06
2023-05-07T15:56:40.091Z,19.95
2023-05-07T15:59:07.795Z,20.67
2023-05-07T16:01:34.921Z,21.22
2023-05-07T16:04:02.365Z,20.70
2023-05-07T16:06:29.434Z,20.58
2023-05-07T16:08:56.566Z,20.69
2023-05-07T16:11:23.655Z,20.71
2023-05-07T16:13:51.098Z,20.03
2023-05-07T16:16:18.238Z,20.63
2023-05-07T16:18:45.308Z,21.13
2023-05-07T16:21:12.895Z,20.19
2023-05-07T16:23:40.384Z,19.71
2023-05-07T16:26:07.852Z,19.57
2023-05-07T16:28:35.231Z,20.65
2023-05-07T16:31:02.340Z,21.09
2023-05-07T16:33:29.476Z,19.72
2023-05-07T16:35:56.575Z,20.34
2023-05-07T16:38:23.674Z,20.42
2023-05-07T16:40:50.756Z,20.34
2023-05-07T16:43:18.117Z,20.52
2023-05-07T16:45:46.642Z,19.98
2023-05-07T16:48:13.726Z,19.28
2023-05-07T16:50:41.639Z,19.31
2023-05-07T16:53:10.574Z,19.79
2023-05-07T16:55:41.482Z,20.11
2023-05-07T16:58:11.243Z,19.49
2023-05-07T17:00:49.911Z,20.81
2023-05-07T17:03:18.881Z,19.38
2023-05-07T17:05:46.583Z,20.28
2023-05-07T17:08:14.174Z,19.87
2023-05-07T17:10:42.380Z,19.06
2023-05-07T17:13:09.588Z,19.29
2023-05-07T17:15:36.784Z,18.70
2023-05-07T17:18:04.040Z,18.89
2023-05-07T17:20:31.302Z,18.57
2023-05-07T17:22:58.395Z,18.86
2023-05-07T17:25:25.857Z,18.89
2023-05-07T17:27:53.101Z,18.49
2023-05-07T17:30:20.866Z,18.38
2023-05-07T17:32:48.128Z,17.49
2023-05-07T17:35:15.273Z,17.84
2023-05-07T17:37:46.777Z,17.04
2023-05-07T17:40:14.372Z,17.14
2023-05-07T17:42:41.548Z,17.04
2023-05-07T17:45:09.466Z,17.53
2023-05-07T17:47:36.534Z,17.49
2023-05-07T17:50:09.017Z,17.40
2023-05-07T17:52:37.608Z,16.80
2023-05-07T17:55:05.737Z,17.17
2023-05-07T17:57:35.342Z,17.37
2023-05-07T18:00:12.544Z,17.59
2023-05-07T18:02:41.156Z,17.03
2023-05-07T18:05:09.447Z,17.06
2023-05-07T18:07:37.468Z,17.03
2023-05-07T18:10:04.978Z,16.57
2023-05-07T18:12:32.220Z,16.53
2023-05-07T18:14:59.525Z,16.48
2023-05-07T18:17:27.785Z,16.54
2023-05-07T18:19:55.481Z,16.49
2023-05-07T18:22:23.984Z,16.21
2023-05-07T18:24:52.267Z,16.07
2023-05-07T18:27:19.461Z,15.88
2023-05-07T18:29:46.493Z,15.75
2023-05-07T18:32:16.746Z,15.56
2023-05-07T18:34:43.863Z,16.33
2023-05-07T18:37:10.922Z,15.66
2023-05-07T18:39:37.980Z,15.76
2023-05-07T18:42:05.380Z,15.49
2023-05-07T18:44:38.263Z,15.85
2023-05-07T18:47:06.282Z,15.33
2023-05-07T18:49:37.175Z,15.27
2023-05-07T18:52:04.557Z,15.16
2023-05-07T18:54:31.692Z,15.12
2023-05-07T18:56:58.814Z,15.18
2023-05-07T18:59:25.882Z,14.53
2023-05-07T19:01:53.281Z,15.30
2023-05-07T19:04:20.633Z,15.57
2023-05-07T19:06:47.825Z,15.59
2023-05-07T19:09:17.125Z,15.74
2023-05-07T19:11:44.286Z,15.63
2023-05-07T19:14:11.363Z,15.17
2023-05-07T19:16:38.707Z,14.75
2023-05-07T19:19:06.608Z,14.53
2023-05-07T19:21:33.831Z,14.66
2023-05-07T19:24:00.912Z,14.52
2023-05-07T19:26:28.000Z,14.78
2023-05-07T19:29:12.499Z,14.83
2023-05-07T19:31:43.926Z,14.22
2023-05-07T19:34:13.124Z,14.30
2023-05-07T19:36:40.674Z,14.32
2023-05-07T19:39:07.756Z,14.06
2023-05-07T19:41:35.042Z,14.27
2023-05-07T19:44:02.163Z,14.20
2023-05-07T19:46:29.257Z,13.97
2023-05-07T19:48:56.356Z,13.75
2023-05-07T19:51:23.673Z,13.51
2023-05-07T19:53:51.453Z,13.18
2023-05-07T19:56:18.519Z,13.06
2023-05-07T19:58:45.721Z,12.96
2023-05-07T20:01:12.758Z,13.08
2023-05-07T20:03:39.955Z,13.11
2023-05-07T20:06:07.125Z,12.80
2023-05-07T20:08:34.263Z,12.81
2023-05-07T20:11:01.597Z,12.91
2023-05-07T20:13:28.791Z,12.67
2023-05-07T20:16:02.520Z,12.87
2023-05-07T20:18:29.869Z,12.77
2023-05-07T20:20:57.142Z,12.97
2023-05-07T20:23:24.586Z,12.51
2023-05-07T20:25:51.949Z,12.35
2023-05-07T20:28:19.189Z,12.18
2023-05-07T20:30:48.627Z,12.35
2023-05-07T20:33:16.063Z,12.33
2023-05-07T20:35:43.170Z,12.32
2023-05-07T20:38:10.311Z,12.29
2023-05-07T20:40:37.977Z,12.22
2023-05-07T20:43:06.564Z,12.01
2023-05-07T20:45:33.719Z,12.25
2023-05-07T20:48:01.080Z,12.41
2023-05-07T20:50:28.702Z,12.46
2023-05-07T20:52:55.887Z,12.31
2023-05-07T20:55:23.370Z,12.73
2023-05-07T20:57:50.524Z,12.69
2023-05-07T21:00:18.250Z,12.77
2023-05-07T21:02:45.934Z,12.66
2023-05-07T21:05:13.089Z,12.80
2023-05-07T21:07:40.212Z,12.28
2023-05-07T21:10:08.324Z,12.23
2023-05-07T21:12:35.653Z,12.25
2023-05-07T21:15:02.839Z,12.41
2023-05-07T21:17:31.726Z,12.21
2023-05-07T21:19:58.920Z,11.94
2023-05-07T21:22:26.081Z,12.37
2023-05-07T21:24:53.162Z,12.71
2023-05-07T21:27:20.293Z,12.30
2023-05-07T21:29:47.479Z,12.36
2023-05-07T21:32:17.223Z,12.04
2023-05-07T21:34:44.242Z,11.98
2023-05-07T21:37:11.325Z,12.05
2023-05-07T21:39:38.438Z,12.36
2023-05-07T21:42:05.537Z,11.97
2023-05-07T21:44:32.674Z,12.07
2023-05-07T21:47:02.946Z,11.88
2023-05-07T21:49:30.139Z,11.91
2023-05-07T21:51:57.172Z,11.92
2023-05-07T21:54:26.513Z,11.96
2023-05-07T21:56:53.727Z,12.03
2023-05-07T21:59:20.813Z,11.95
2023-05-07T22:01:47.999Z,11.95
2023-05-07T22:04:15.110Z,11.69
2023-05-07T22:06:42.192Z,11.51
2023-05-07T22:09:09.374Z,11.29
2023-05-07T22:11:36.466Z,11.42
2023-05-07T22:14:03.610Z,11.32
2023-05-07T22:16:31.031Z,11.41
2023-05-07T22:18:58.145Z,11.40
2023-05-07T22:21:25.514Z,11.24
2023-05-07T22:23:52.613Z,10.99
2023-05-07T22:26:19.675Z,11.57
2023-05-07T22:28:46.748Z,11.92
2023-05-07T22:31:13.950Z,12.22
2023-05-07T22:33:41.099Z,12.16
2023-05-07T22:36:08.513Z,11.77
2023-05-07T22:38:35.734Z,11.62
2023-05-07T22:41:02.800Z,11.44
2023-05-07T22:43:29.842Z,11.34
2023-05-07T22:46:01.306Z,11.17
2023-05-07T22:48:35.005Z,10.92
2023-05-07T22:51:02.073Z,11.06
2023-05-07T22:53:29.099Z,11.40
2023-05-07T22:55:56.183Z,11.09
2023-05-07T22:58:23.730Z,10.97
2023-05-07T23:00:50.836Z,10.97
2023-05-07T23:03:18.099Z,10.85
2023-05-07T23:05:45.432Z,10.87
2023-05-07T23:08:12.737Z,11.13
2023-05-07T23:10:39.893Z,11.09
2023-05-07T23:13:09.301Z,11.18
2023-05-07T23:15:36.422Z,10.79
2023-05-07T23:18:03.581Z,10.97
2023-05-07T23:20:31.442Z,10.55
2023-05-07T23:22:58.649Z,11.36
2023-05-07T23:25:25.692Z,11.14
2023-05-07T23:27:52.844Z,11.25
2023-05-07T23:30:20.059Z,10.73
2023-05-07T23:32:47.297Z,10.74
2023-05-07T23:35:14.437Z,10.96
2023-05-07T23:37:41.667Z,10.84
2023-05-07T23:40:09.115Z,10.57
2023-05-07T23:42:36.519Z,10.98
2023-05-07T23:45:04.486Z,10.91
2023-05-07T23:47:31.650Z,10.42
2023-05-07T23:49:58.732Z,10.91
2023-05-07T23:52:26.115Z,10.89
2023-05-07T23:54:53.174Z,10.63
2023-05-07T23:57:20.244Z,10.18
2023-05-07T23:59:47.317Z,10.49
